Kensett, Iowa
Current Conditions -  °F | °C
As of 9:53 PM on Saturday 20 Dec 2014 (Local Time) from KMCW Reporting Station
Moderate Fog Moderate Fog  
Wind Chill: 21°   Ceiling: 200
Heat Index: 31°   Visibility: 0.25mi
Dew Point: 31°   Wind: 14mph
Humidity: 100%   Direction: 160°SSE
Pressure: 30.09"   Gusts: NA
Location:  43.35°N, 93.21°W
Report Text: KMCW 210353Z AUTO 16012KT 1/4SM FZFG VV002 M01/M01 A3009 RMK AO2 SLPNO I1003 T10061006 $
Loading
Personal Weather Stations






























Interactive Weather Map New forecast layout! Learn more

10-Day Weather Forecast

Advertisements
Track Severe Weather on mobile